BLKO2: Chikashia River, Blackwell, OK

Data processed at Sun Sep 23 2018 22:02


All information presented herein is the property of the government of the United States of America and may be revised or deleted at any time without prior notice.
Dissemination of this information without the expressed written consent of the Public Affairs Office, Tulsa District U.S. Army Corps of Engineers is strictly prohibited.
These data are gathered electronically and, as presented, have not undergone any form of quality control. These data are not guaranteed to be valid or correct.
Go to home page.
Go to station list.
Go to home page.

Upstream stations:

Downstream station:
Previous Day
Next Day
Current Day
    
SHEF ID:       BLKO2     Chikaskia River near Blackwell,
STATION TYPE:  

               PRECIP     STAGE  STAGE(2)  RIV-FLOW  BAT-LOAD
                   in        ft        ft       cfs      volt
              Ccp-Rev   Ccp-Rev   Ccp-Rev   Ccp-Rev   Ccp-Rev
(US/Central)
09/23 00:00      0.00      2.14      2.39        66     12.65
09/23 01:00      0.00      2.11      2.40        61     12.57
09/23 02:00      0.00      2.09      2.40        58     12.57
09/23 03:00      0.00      2.07      2.41        55     12.57
09/23 04:00      0.00      2.07      2.42        55     12.57
09/23 05:00      0.00      2.10      2.44        59     12.57
09/23 06:00      0.00      2.16      2.48        69     12.49
09/23 07:00      0.00      2.28      2.57        92     12.49
09/23 08:00      0.00      2.44      2.72       125     12.49
09/23 09:00      0.00      2.62      2.89       165     12.49
09/23 10:00      0.00      2.78      3.05       205     12.81
09/23 11:00      0.00      2.94      3.20       248     13.21
09/23 12:00      0.00      3.09      3.30       293     13.53
09/23 13:00      0.00      3.26      3.37       347     13.60
09/23 14:00      0.00      3.44      3.41       406     14.08
09/23 15:00      0.00      3.51      3.44       430     14.08
09/23 16:00      0.00      3.52      3.47       434     13.53
09/23 17:00      0.00      3.52      3.49       434     13.53
09/23 18:00      0.00      3.51      3.50       430     13.53
09/23 19:00      0.00      3.47      3.51       416     13.44
09/23 20:00      0.00      3.44      3.51       406     12.73
09/23 21:00      0.00      3.38      3.50       386     12.65
09/23 22:00      ----      ----      ----      ----      ----
09/23 23:00      ----      ----      ----      ----      ----